• Join FlightAware (Why Join?)
  • Login
  • US Flag 
02:11PM EDT


 

Airport Tracker/Info


-or-


 

Live Flight TrackerFlight Track Log ✈ UPS2948 ✈ 13-May-2013 ✈ KSDF - KOAK

Flight Track Log - Related Links

Times and Time Zones

All times are in EDT time to prevent confusion due to time zone crossing. See the UPS2948 flight status page for this flight to view local times or setup timezone preferences in your user account.

Time Position Orientation Groundspeed Altitude Reporting Facility
EDT Latitude Longitude Course Direction KTS MPH feet Rate Location/Type
04:18PM 38.1800 -85.7460 173° South 159 183 900  Level FlightAware
04:18PM 38.1990 -85.7530 344° North 167 192 2,100 1,920 Climbing FlightAware
04:18PM 38.2220 -85.7690 331° Northwest 208 239 2,700 1,740 Climbing FlightAware
04:19PM 38.2420 -85.7840 330° Northwest 214 246 3,700 2,400 Climbing FlightAware
04:19PM 38.2690 -85.8050 329° Northwest 243 280 4,900 2,220 Climbing FlightAware
04:20PM 38.2780 -85.8160 316° Northwest 254 292 5,200 2,400 Climbing FlightAware
04:20PM 38.2850 -85.8430 288° West 256 295 6,100 3,060 Climbing FlightAware
04:20PM 38.2780 -85.8810 257° West 264 304 7,500 3,120 Climbing FlightAware
04:21PM 38.2670 -85.8990 232° Southwest 271 312 8,200 2,820 Climbing FlightAware
04:21PM 38.2410 -85.9230 216° Southwest 286 329 9,400 2,100 Climbing FlightAware
04:22PM 38.1900 -85.9670 214° Southwest 315 362 10,700 1,620 Climbing FlightAware
04:22PM 38.1400 -86.0150 217° Southwest 353 406 11,700 1,860 Climbing FlightAware
04:23PM 38.0790 -86.0720 216° Southwest 367 422 13,400 2,400 Climbing FlightAware
04:24PM 38.0230 -86.1250 217° Southwest 375 432 15,100 2,400 Climbing FlightAware
04:25PM 37.9660 -86.1850 220° Southwest 366 421 16,800 2,220 Climbing FlightAware
04:25PM 37.9400 -86.2530 244° Southwest 347 399 18,100 1,920 Climbing FlightAware
04:26PM 37.9350 -86.3260 265° West 347 399 19,200 720 Climbing FlightAware
04:27PM 37.9290 -86.4100 265° West 347 399 19,200 1,920 Level FlightAware
04:27PM 37.9240 -86.5230 267° West 370 426 22,100 2,940 Climbing FlightAware
04:28PM 37.9200 -86.6090 267° West 374 430 23,400 1,740 Climbing FlightAware
04:29PM 37.9153 -86.6908 267° West 370 426 24,500 1,620 Climbing Indianapolis Center
04:30PM 37.9072 -86.8286 266° West 384 442 26,300 1,620 Climbing Indianapolis Center
04:31PM 37.9006 -86.9708 267° West 396 456 27,900 1,500 Climbing Indianapolis Center
04:32PM 37.8917 -87.1189 266° West 410 472 29,400 1,440 Climbing Indianapolis Center
04:33PM 37.8828 -87.2700 266° West 422 486 30,900 1,620 Climbing Indianapolis Center
04:34PM 37.8733 -87.4236 266° West 430 495 32,800 1,500 Climbing Indianapolis Center
04:35PM 37.8650 -87.5725 266° West 424 488 34,000 540 Climbing Indianapolis Center
04:36PM 37.8539 -87.7531 266° West 425 489 34,000  Level Indianapolis Center
04:37PM 37.8447 -87.9047 266° West 429 494 34,000 540 Level Indianapolis Center
04:38PM 37.8356 -88.0589 266° West 437 503 35,200 1,500 Climbing Indianapolis Center
04:39PM 37.8258 -88.2075 265° West 427 491 37,200 1,140 Climbing Indianapolis Center
04:40PM 37.8167 -88.3542 266° West 419 482 37,600 360 Climbing Indianapolis Center
04:41PM 37.8047 -88.5367 265° West 428 493 38,000 180 Climbing Kansas City Center
04:42PM 37.7944 -88.6903 265° West 435 501 38,000  Level Kansas City Center
04:43PM 37.7842 -88.8372 265° West 440 506 38,000  Level Kansas City Center
04:44PM 37.7706 -89.0217 265° West 441 507 38,000  Level Kansas City Center
04:45PM 37.7592 -89.1753 265° West 441 507 38,000  Level Kansas City Center
04:46PM 37.7469 -89.3297 264° West 443 510 38,000  Level Kansas City Center
04:47PM 37.7353 -89.4728 264° West 438 504 38,000  Level Kansas City Center
04:48PM 37.7233 -89.6250 264° West 438 504 38,000  Level Kansas City Center
04:49PM 37.7106 -89.7789 264° West 439 505 38,000  Level Kansas City Center
04:50PM 37.6956 -89.9644 264° West 441 507 38,000  Level Kansas City Center
04:52PM 37.6825 -90.1197 264° West 443 510 38,000  Level Kansas City Center
04:53PM 37.6714 -90.2756 265° West 445 512 38,000  Level Kansas City Center
04:54PM 37.6664 -90.4300 268° West 443 510 38,000  Level Kansas City Center
04:55PM 37.6622 -90.5828 268° West 439 505 38,000  Level Kansas City Center
04:56PM 37.6564 -90.7383 267° West 442 509 38,000  Level Kansas City Center
04:57PM 37.6492 -90.9272 267° West 447 514 38,000  Level Kansas City Center
04:58PM 37.6428 -91.0928 267° West 450 518 38,000  Level Kansas City Center
04:59PM 37.6367 -91.2494 267° West 448 516 38,000  Level Kansas City Center
05:00PM 37.6317 -91.4083 268° West 450 518 38,000  Level Kansas City Center
05:01PM 37.6250 -91.5692 267° West 455 524 38,000  Level Kansas City Center
05:02PM 37.6189 -91.7317 267° West 461 531 38,000  Level Kansas City Center
05:03PM 37.6111 -91.8972 267° West 467 537 38,000  Level Kansas City Center
05:04PM 37.6042 -92.0608 267° West 466 536 38,000  Level Kansas City Center
05:05PM 37.5958 -92.2600 267° West 468 539 38,000  Level Kansas City Center
05:06PM 37.5875 -92.4256 266° West 468 539 38,000  Level Kansas City Center
05:07PM 37.5803 -92.5903 267° West 467 537 38,000  Level Kansas City Center
05:08PM 37.5722 -92.7550 267° West 466 536 38,000  Level Kansas City Center
05:09PM 37.5642 -92.9161 266° West 461 531 38,000  Level Kansas City Center
05:10PM 37.5556 -93.0811 266° West 465 535 38,000  Level Kansas City Center
05:11PM 37.5469 -93.2456 266° West 467 537 38,000  Level Kansas City Center
05:12PM 37.5378 -93.4097 266° West 469 540 38,000  Level Kansas City Center
05:13PM 37.5281 -93.5744 266° West 470 541 38,000  Level Kansas City Center
05:14PM 37.5164 -93.7731 266° West 472 543 38,000  Level Kansas City Center
05:15PM 37.5064 -93.9378 266° West 472 543 38,000  Level Kansas City Center
05:16PM 37.5025 -94.1017 268° West 469 540 38,000  Level Kansas City Center
05:17PM 37.5089 -94.2781 273° West 465 535 38,000  Level Kansas City Center
05:18PM 37.5122 -94.4406 272° West 465 535 38,000  Level Kansas City Center
05:19PM 37.5158 -94.6050 272° West 468 539 38,000  Level Kansas City Center
05:20PM 37.5186 -94.7675 271° West 468 539 38,000  Level Kansas City Center
05:21PM 37.5217 -94.9303 271° West 466 536 38,000  Level Kansas City Center
05:23PM 37.5242 -95.1281 271° West 470 541 38,000  Level Kansas City Center
05:24PM 37.5272 -95.2936 271° West 472 543 38,000  Level Kansas City Center
05:25PM 37.5292 -95.4586 271° West 473 544 38,000  Level Kansas City Center
05:26PM 37.5314 -95.6233 271° West 473 544 38,000  Level Kansas City Center
05:27PM 37.5328 -95.7828 271° West 465 535 38,000  Level Kansas City Center
05:28PM 37.5331 -95.9453 270° West 464 534 38,000  Level Kansas City Center
05:29PM 37.5347 -96.1358 271° West 458 527 38,000  Level Kansas City Center
05:30PM 37.5356 -96.2964 270° West 459 528 38,000  Level Kansas City Center
05:31PM 37.5361 -96.4575 270° West 460 529 38,000  Level Kansas City Center
05:32PM 37.5358 -96.6056 270° West 462 532 38,000  Level Kansas City Center
05:33PM 37.5367 -96.7672 270° West 462 532 38,000  Level Kansas City Center
05:34PM 37.5389 -96.9628 271° West 466 536 38,000  Level Kansas City Center
05:35PM 37.5392 -97.1256 270° West 466 536 38,000  Level Kansas City Center
05:36PM 37.5386 -97.2883 270° West 464 534 38,000  Level Kansas City Center
05:37PM 37.5369 -97.4525 269° West 467 537 38,000  Level Kansas City Center
05:38PM 37.5372 -97.6169 270° West 466 536 38,000  Level Kansas City Center
05:39PM 37.5369 -97.7828 270° West 469 540 38,000  Level Kansas City Center
05:40PM 37.5356 -97.9494 269° West 471 542 38,000  Level Kansas City Center
05:41PM 37.5347 -98.1158 270° West 471 542 38,000  Level Kansas City Center
05:42PM 37.5325 -98.3139 269° West 469 540 38,000  Level Kansas City Center
05:43PM 37.5306 -98.4786 269° West 469 540 38,000  Level Kansas City Center
05:44PM 37.5289 -98.6436 269° West 470 541 38,000  Level Kansas City Center
05:45PM 37.5250 -98.8067 268° West 467 537 38,000  Level Kansas City Center
05:46PM 37.5225 -98.9711 269° West 468 539 38,000  Level Kansas City Center
05:47PM 37.5194 -99.1350 269° West 467 537 38,000  Level Kansas City Center
05:48PM 37.5153 -99.2964 268° West 463 533 38,000  Level Kansas City Center
05:49PM 37.5125 -99.4819 269° West 465 535 38,000  Level Kansas City Center
05:50PM 37.5083 -99.6628 268° West 463 533 38,000  Level Kansas City Center
05:51PM 37.5033 -99.8208 268° West 468 539 38,000  Level Kansas City Center
05:53PM 37.5008 -100.0058 269° West 473 544 38,000  Level Kansas City Center
05:54PM 37.5167 -100.1644 277° West 476 548 38,000  Level Kansas City Center
05:55PM 37.5347 -100.3208 278° West 473 544 38,000  Level Kansas City Center
05:56PM 37.5531 -100.4922 278° West 474 545 38,000  Level Kansas City Center
05:57PM 37.5703 -100.6542 278° West 468 539 38,000  Level Kansas City Center
05:58PM 37.5867 -100.8181 277° West 470 541 38,000  Level Kansas City Center
05:59PM 37.6064 -101.0192 277° West 480 552 38,000  Level Kansas City Center
06:00PM 37.6231 -101.1706 278° West 473 544 38,000  Level Kansas City Center
06:01PM 37.6419 -101.3536 277° West 472 543 38,000  Level Kansas City Center
06:02PM 37.6578 -101.5119 277° West 473 544 38,000  Level Kansas City Center
06:03PM 37.6703 -101.6431 277° West 472 543 38,000  Level Denver Center
06:04PM 37.6847 -101.7997 277° West 472 543 38,000  Level Denver Center
06:05PM 37.7017 -101.9811 277° West 468 539 38,000  Level Denver Center
06:06PM 37.7164 -102.1386 277° West 469 540 38,000  Level Denver Center
06:07PM 37.7342 -102.3456 276° West 467 537 38,000  Level Denver Center
06:08PM 37.7478 -102.5044 276° West 470 541 38,000  Level Denver Center
06:09PM 37.7647 -102.6869 277° West 470 541 38,000  Level Denver Center
06:10PM 37.7781 -102.8425 276° West 468 539 38,000  Level Denver Center
06:11PM 37.7925 -103.0250 276° West 468 539 38,000  Level Denver Center
06:12PM 37.8064 -103.1803 277° West 467 537 38,000  Level Denver Center
06:13PM 37.8194 -103.3364 276° West 467 537 38,000  Level Denver Center
06:14PM 37.8350 -103.5203 276° West 470 541 38,000  Level Denver Center
06:15PM 37.8475 -103.6786 276° West 473 544 38,000  Level Denver Center
06:16PM 37.8619 -103.8636 276° West 476 548 38,000  Level Denver Center
06:17PM 37.8750 -104.0486 275° West 477 549 38,000  Level Denver Center
06:18PM 37.8872 -104.2075 276° West 479 551 38,000  Level Denver Center
06:19PM 37.8992 -104.3931 275° West 477 549 38,000  Level Denver Center
06:20PM 37.9103 -104.5522 275° West 477 549 38,000  Level Denver Center
06:21PM 37.9214 -104.7119 275° West 478 550 38,000  Level Denver Center
06:22PM 37.9342 -104.8986 275° West 478 550 38,000  Level Denver Center
06:23PM 37.9453 -105.0586 275° West 478 550 38,000  Level Denver Center
06:24PM 37.9578 -105.2439 275° West 474 545 38,000  Level Denver Center
06:25PM 37.9669 -105.4044 274° West 478 550 38,000  Level Denver Center
06:26PM 37.9786 -105.5917 275° West 477 549 38,000  Level Denver Center
06:27PM 37.9892 -105.7528 275° West 480 552 38,000  Level Denver Center
06:29PM 37.9986 -105.9408 274° West 480 552 38,000  Level Denver Center
06:30PM 38.0064 -106.1019 274° West 479 551 38,000  Level Denver Center
06:31PM 38.0069 -106.2911 270° West 479 551 38,000  Level Denver Center
06:32PM 38.0169 -106.4536 275° West 483 556 38,000  Level Denver Center
06:33PM 38.0250 -106.6319 273° West 495 570 38,000  Level Denver Center
06:34PM 38.0336 -106.8250 273° West 491 565 38,000  Level Denver Center
06:35PM 38.0394 -106.9897 273° West 489 563 38,000  Level Denver Center
06:36PM 38.0461 -107.1533 273° West 486 559 38,000  Level Denver Center
06:37PM 38.0525 -107.3533 272° West 485 558 38,000  Level Denver Center
06:38PM 38.0603 -107.5164 274° West 484 557 38,000  Level Denver Center
06:39PM 38.0647 -107.6522 272° West 485 558 38,000  Level Denver Center
06:40PM 38.0722 -107.8711 273° West 487 560 38,000  Level Denver Center
06:41PM 38.0772 -108.0556 272° West 485 558 38,000  Level Denver Center
06:42PM 38.0842 -108.2214 273° West 488 562 38,000  Level Denver Center
06:43PM 38.0894 -108.3589 273° West 489 563 38,000  Level Denver Center
06:44PM 38.0975 -108.5778 273° West 485 558 38,000  Level Denver Center
06:45PM 38.1031 -108.7425 273° West 486 559 38,000  Level Denver Center
06:46PM 38.1078 -108.9336 272° West 485 558 38,000  Level Denver Center
06:47PM 38.1106 -109.0964 271° West 483 556 38,000  Level Denver Center
06:48PM 38.1139 -109.2850 271° West 479 551 38,000  Level Denver Center
06:49PM 38.1183 -109.4747 272° West 479 551 38,000  Level Denver Center
06:50PM 38.1214 -109.6647 271° West 481 554 38,000  Level Denver Center
06:51PM 38.1256 -109.8261 272° West 479 551 38,000  Level Denver Center
06:52PM 38.1306 -110.0167 272° West 481 554 38,000  Level Denver Center
06:53PM 38.1331 -110.1792 271° West 480 552 38,000  Level Denver Center
06:54PM 38.1358 -110.3417 271° West 481 554 38,000  Level Denver Center
06:56PM 38.1381 -110.5300 271° West 478 550 38,000  Level Denver Center
06:57PM 38.1406 -110.6917 271° West 478 550 38,000  Level Denver Center
06:57PM 38.1408 -110.7992 270° West 476 548 38,000  Level Salt Lake Center
06:58PM 38.1442 -110.9578 272° West 475 547 38,000  Level Salt Lake Center
06:59PM 38.1444 -111.1250 270° West 474 545 38,000  Level Salt Lake Center
07:00PM 38.1475 -111.2919 271° West 474 545 38,000  Level Salt Lake Center
07:01PM 38.1472 -111.4572 270° West 471 542 38,000  Level Salt Lake Center
07:02PM 38.1489 -111.6231 271° West 471 542 38,000  Level Salt Lake Center
07:03PM 38.1494 -111.8219 270° West 471 542 38,000  Level Salt Lake Center
07:04PM 38.1486 -111.9861 270° West 469 540 38,000  Level Salt Lake Center
07:05PM 38.1472 -112.1500 269° West 467 537 38,000  Level Salt Lake Center
07:06PM 38.1475 -112.3156 270° West 469 540 38,000  Level Salt Lake Center
07:07PM 38.1478 -112.4789 270° West 468 539 38,000  Level Salt Lake Center
07:08PM 38.1469 -112.6425 270° West 467 537 38,000  Level Salt Lake Center
07:09PM 38.1467 -112.8053 270° West 466 536 38,000  Level Salt Lake Center
07:10PM 38.1444 -113.0003 269° West 465 535 38,000  Level Salt Lake Center
07:11PM 38.1422 -113.1617 269° West 462 532 38,000  Level Salt Lake Center
07:12PM 38.1408 -113.3233 269° West 462 532 38,000  Level Salt Lake Center
07:13PM 38.1381 -113.4833 269° West 458 527 38,000  Level Salt Lake Center
07:14PM 38.1367 -113.6431 269° West 456 525 38,000  Level Salt Lake Center
07:15PM 38.1344 -113.8022 269° West 453 521 38,000  Level Salt Lake Center
07:17PM 38.1325 -113.9628 269° West 454 522 38,000  Level Salt Lake Center
07:18PM 38.1278 -114.1233 268° West 456 525 38,000  Level Salt Lake Center
07:19PM 38.1244 -114.3164 269° West 457 526 38,000  Level Salt Lake Center
07:20PM 38.1211 -114.4767 269° West 457 526 38,000  Level Salt Lake Center
07:21PM 38.1167 -114.6372 268° West 457 526 38,000  Level Salt Lake Center
07:22PM 38.1142 -114.7975 269° West 457 526 38,000  Level Salt Lake Center
07:23PM 38.1108 -114.9564 269° West 454 522 38,000  Level Salt Lake Center
07:24PM 38.1061 -115.1167 268° West 455 524 38,000  Level Salt Lake Center
07:25PM 38.1011 -115.2775 268° West 457 526 38,000  Level Salt Lake Center
07:26PM 38.0981 -115.4381 269° West 451 519 38,000  Level Salt Lake Center
07:27PM 38.0928 -115.5994 268° West 457 526 38,000  Level Salt Lake Center
07:28PM 38.0858 -115.7903 267° West 453 521 38,000  Level Salt Lake Center
07:29PM 38.0811 -115.9497 268° West 452 520 38,000  Level Salt Lake Center
07:30PM 38.0758 -116.1064 268° West 446 513 38,000  Level Salt Lake Center
07:31PM 38.0714 -116.2331 267° West 448 516 38,000  Level Oakland Center
07:31PM 38.0700 -116.2644 267° West 447 514 38,000  Level Salt Lake Center
07:32PM 38.0656 -116.3903 267° West 445 512 38,000  Level Oakland Center
07:32PM 38.0644 -116.4211 267° West 445 512 38,000  Level Salt Lake Center
07:33PM 38.0583 -116.5775 267° West 443 510 38,000  Level Salt Lake Center
07:34PM 38.0519 -116.7336 267° West 444 511 38,000  Level Salt Lake Center
07:35PM 38.0456 -116.8903 267° West 443 510 38,000  Level Salt Lake Center
07:36PM 38.0408 -117.0169 267° West 445 512 38,000  Level Oakland Center
07:37PM 38.0333 -117.1769 267° West 444 511 38,000  Level Oakland Center
07:38PM 38.0261 -117.3386 267° West 447 514 38,000  Level Oakland Center
07:39PM 38.0189 -117.4925 267° West 436 502 38,000  Level Oakland Center
07:40PM 38.0114 -117.6414 266° West 424 488 38,000  Level Oakland Center
07:41PM 38.0039 -117.7886 266° West 418 481 38,000  Level Oakland Center
07:42PM 37.9992 -117.9361 268° West 418 481 38,000  Level Oakland Center
07:43PM 37.9928 -118.0817 267° West 414 476 38,000  Level Oakland Center
07:44PM 37.9881 -118.2289 268° West 417 480 38,000  Level Oakland Center
07:45PM 37.9811 -118.3778 267° West 421 484 38,000  Level Oakland Center
07:46PM 37.9756 -118.5247 267° West 419 482 38,000  Level Oakland Center
07:47PM 37.9678 -118.6992 267° West 415 478 38,000  Level Oakland Center
07:48PM 37.9622 -118.8475 267° West 418 481 38,000  Level Oakland Center
07:49PM 37.9547 -118.9931 266° West 415 478 38,000  Level Oakland Center
07:50PM 37.9489 -119.1383 267° West 413 475 38,000  Level Oakland Center
07:51PM 37.9419 -119.2931 267° West 412 474 38,000 -720 Level Oakland Center
07:52PM 37.9361 -119.4386 267° West 413 475 36,600 -1,800 Descending Oakland Center
07:53PM 37.9275 -119.5869 266° West 421 484 34,400 -2,640 Descending Oakland Center
07:54PM 37.9200 -119.7369 266° West 426 490 31,300 -2,940 Descending Oakland Center
07:55PM 37.9117 -119.8889 266° West 431 496 28,400 -1,680 Descending Oakland Center
07:56PM 37.9031 -120.0333 266° West 415 478 28,000 -240 Descending Oakland Center
07:57PM 37.8942 -120.1769 266° West 409 471 28,000  Level Oakland Center
07:58PM 37.8842 -120.3228 265° West 415 478 28,000 -300 Level Oakland Center
07:59PM 37.8772 -120.4631 266° West 404 465 27,500 -1,560 Descending Oakland Center
08:00PM 37.8689 -120.6061 266° West 406 467 24,900 -2,580 Descending Oakland Center
08:00PM 37.8667 -120.6667 267° West 389 448 24,000 -2,700 Descending Northern Cal TRACON
08:01PM 37.8500 -120.8000 261° West 378 435 21,300 -2,580 Descending Northern Cal TRACON
08:02PM 37.8500 -120.9333 270° West 374 430 18,900 -2,520 Descending Northern Cal TRACON
08:03PM 37.8333 -121.0667 261° West 362 417 16,300 -2,520 Descending Northern Cal TRACON
08:04PM 37.8333 -121.1833 270° West 373 429 13,900 -2,100 Descending Northern Cal TRACON
08:05PM 37.7833 -121.2833 238° Southwest 343 395 12,100 -1,200 Descending Northern Cal TRACON
08:06PM 37.7667 -121.3833 258° West 250 288 11,600 -1,020 Descending Northern Cal TRACON
08:07PM 37.7333 -121.4500 238° Southwest 234 269 10,100 -1,200 Descending Northern Cal TRACON
08:08PM 37.7000 -121.5333 243° Southwest 227 261 9,200 -1,020 Descending Northern Cal TRACON
08:09PM 37.6833 -121.6000 252° West 227 261 8,100 -900 Descending Northern Cal TRACON
08:10PM 37.6667 -121.6667 252° West 234 269 7,600 -600 Descending Northern Cal TRACON
08:11PM 37.6500 -121.7667 258° West 233 268 7,000 -780 Descending Northern Cal TRACON
08:12PM 37.6333 -121.8333 252° West 235 270 6,000 -960 Descending Northern Cal TRACON
08:13PM 37.6272 -121.9003 263° West 232 267 5,200 -1,020 Descending Oakland Center
08:14PM 37.6194 -121.9722 262° West 222 255 4,100 -1,200 Descending Oakland Center
08:15PM 37.6167 -122.0333 267° West 167 192 2,900 -840 Descending Northern Cal TRACON
08:16PM 37.6167 -122.1000 270° West 136 157 2,400 -600 Descending Northern Cal TRACON
08:17PM 37.6436 -122.1272 321° Northwest 140 161 1,700 -660 Descending Oakland Center
08:18PM 37.6653 -122.1597 310° West 129 148 1,100 -600 Descending Oakland Center
08:20PM 37.6856 -122.1906 310° West 121 139 500 -600 Descending Oakland Center
08:23PM 37.7167 -122.2167 270° West  Level FlightAware Approximate